createdAt,value
2019-01-16T13:23:55.698Z,3.06
2019-01-16T13:26:03.418Z,3.20
2019-01-16T13:28:10.805Z,3.04
2019-01-16T13:30:42.700Z,3.10
2019-01-16T13:32:56.316Z,3.30
2019-01-16T13:35:11.058Z,3.09
2019-01-16T13:37:18.446Z,3.26
2019-01-16T13:39:32.409Z,3.31
2019-01-16T13:43:58.217Z,3.39
2019-01-16T13:46:12.183Z,3.23
2019-01-16T13:50:08.660Z,3.09
2019-01-16T13:54:04.147Z,3.12
2019-01-16T13:56:11.818Z,2.89
2019-01-16T13:58:26.193Z,2.92
2019-01-16T14:00:33.557Z,3.14
2019-01-16T14:02:40.963Z,3.05
2019-01-16T14:04:56.559Z,3.01
2019-01-16T14:08:52.046Z,2.99
2019-01-16T14:11:10.115Z,2.82
2019-01-16T14:13:18.699Z,2.90
2019-01-16T14:15:33.532Z,3.04
2019-01-16T14:17:41.262Z,2.95
2019-01-16T14:19:50.696Z,2.85
2019-01-16T14:22:06.298Z,2.83
2019-01-16T14:24:14.889Z,2.83
2019-01-16T14:26:28.423Z,2.68
2019-01-16T14:28:43.202Z,2.96
2019-01-16T14:30:50.576Z,2.88
2019-01-16T14:33:04.123Z,2.84
2019-01-16T14:35:11.485Z,2.80
2019-01-16T14:37:18.875Z,2.90
2019-01-16T14:39:33.246Z,2.85
2019-01-16T14:41:46.807Z,2.74
2019-01-16T14:43:54.140Z,2.63
2019-01-16T14:46:10.158Z,2.63
2019-01-16T14:48:17.518Z,2.90
2019-01-16T14:50:24.912Z,2.56
2019-01-16T14:52:39.278Z,2.78
2019-01-16T14:54:46.646Z,2.87
2019-01-16T14:56:55.262Z,2.55
2019-01-16T14:59:09.228Z,2.91
2019-01-16T15:01:16.587Z,2.78
2019-01-16T15:03:23.980Z,3.07
2019-01-16T15:05:38.353Z,2.92
2019-01-16T15:07:45.717Z,2.59
2019-01-16T15:09:53.103Z,2.71
2019-01-16T15:12:07.482Z,2.79
2019-01-16T15:14:14.839Z,2.84
2019-01-16T15:16:22.226Z,2.91
2019-01-16T15:18:36.188Z,2.98
2019-01-16T15:20:43.960Z,3.03
2019-01-16T15:22:52.578Z,2.82
2019-01-16T15:25:07.360Z,2.79
2019-01-16T15:27:14.726Z,2.68
2019-01-16T15:29:22.114Z,2.84
2019-01-16T15:31:36.491Z,2.78
2019-01-16T15:33:45.902Z,2.92
2019-01-16T15:35:58.215Z,2.79
2019-01-16T15:38:08.477Z,2.78
2019-01-16T15:40:15.846Z,2.93
2019-01-16T15:42:23.229Z,2.85
2019-01-16T15:44:38.422Z,2.73
2019-01-16T15:46:47.839Z,2.61
2019-01-16T15:48:55.222Z,2.87
2019-01-16T15:51:09.189Z,2.70
2019-01-16T15:53:18.598Z,2.82
2019-01-16T15:55:33.385Z,2.98
2019-01-16T15:57:41.974Z,2.73
2019-01-16T15:59:49.360Z,2.71
2019-01-16T16:02:03.331Z,2.71
2019-01-16T16:04:10.696Z,2.70
2019-01-16T16:06:18.078Z,2.87
2019-01-16T16:08:32.449Z,2.75
2019-01-16T16:10:43.097Z,2.74
2019-01-16T16:12:50.479Z,2.57
2019-01-16T16:15:04.444Z,2.74
2019-01-16T16:17:11.810Z,2.73
2019-01-16T16:19:19.205Z,2.60
2019-01-16T16:21:33.159Z,2.80
2019-01-16T16:23:41.758Z,2.74
2019-01-16T16:25:49.147Z,2.72
2019-01-16T16:28:04.331Z,3.11
2019-01-16T16:30:12.928Z,3.47
2019-01-16T16:32:21.546Z,3.81
2019-01-16T16:34:35.507Z,3.44
2019-01-16T16:36:46.150Z,3.00
2019-01-16T16:38:53.537Z,3.09
2019-01-16T16:41:07.496Z,3.16
2019-01-16T16:43:14.903Z,2.95
2019-01-16T16:45:22.258Z,2.93
2019-01-16T16:47:36.218Z,2.68
2019-01-16T16:49:44.805Z,3.07
2019-01-16T16:51:52.194Z,3.25
2019-01-16T16:54:07.387Z,3.07
2019-01-16T16:56:14.754Z,3.08
2019-01-16T16:58:24.185Z,3.05
2019-01-16T17:00:38.555Z,2.72
2019-01-16T17:02:49.204Z,2.77
2019-01-16T17:04:56.586Z,2.76
2019-01-16T17:07:12.192Z,2.98
2019-01-16T17:09:19.556Z,2.76
2019-01-16T17:11:28.198Z,2.83
2019-01-16T17:13:48.040Z,2.68
2019-01-16T17:15:51.141Z,2.97
2019-01-16T17:17:58.523Z,2.82
2019-01-16T17:20:12.486Z,2.70
2019-01-16T17:22:21.079Z,2.56
2019-01-16T17:24:28.467Z,2.89
2019-01-16T17:26:42.430Z,2.75
2019-01-16T17:28:49.797Z,2.84
2019-01-16T17:30:57.179Z,2.73
2019-01-16T17:33:11.558Z,2.78
2019-01-16T17:35:20.402Z,2.93
2019-01-16T17:37:27.536Z,2.79
2019-01-16T17:41:22.016Z,2.79
2019-01-16T17:43:29.626Z,2.87
2019-01-16T17:45:43.180Z,2.73
2019-01-16T17:47:51.772Z,2.95
2019-01-16T17:50:00.388Z,2.73
2019-01-16T17:52:15.172Z,2.78
2019-01-16T17:54:23.770Z,2.90
2019-01-16T17:56:31.158Z,2.81
2019-01-16T17:58:45.117Z,2.83
2019-01-16T18:00:53.719Z,2.81
2019-01-16T18:03:02.327Z,2.72
2019-01-16T18:05:18.340Z,2.76
2019-01-16T18:07:27.750Z,2.86
2019-01-16T18:09:35.138Z,2.79
2019-01-16T18:11:49.099Z,2.72
2019-01-16T18:13:56.466Z,2.79
2019-01-16T18:16:03.852Z,2.84
2019-01-16T18:18:20.271Z,3.05
2019-01-16T18:20:27.646Z,2.80
2019-01-16T18:22:35.024Z,3.11
2019-01-16T18:24:49.398Z,2.76
2019-01-16T18:26:56.764Z,3.09
2019-01-16T18:29:05.383Z,3.01
2019-01-16T18:31:19.342Z,3.02
2019-01-16T18:33:26.707Z,2.85
2019-01-16T18:35:35.327Z,2.89
2019-01-16T18:37:49.288Z,2.92
2019-01-16T18:39:57.061Z,3.01
2019-01-16T18:42:04.084Z,2.81
2019-01-16T18:44:18.410Z,2.98
2019-01-16T18:46:25.778Z,2.88
2019-01-16T18:48:33.163Z,2.92
2019-01-16T18:50:47.132Z,2.90
2019-01-16T18:52:55.800Z,2.83
2019-01-16T18:55:03.523Z,3.01
2019-01-16T18:57:18.707Z,2.66
2019-01-16T18:59:26.087Z,2.86
2019-01-16T19:01:34.692Z,2.86
2019-01-16T19:03:48.248Z,2.86
2019-01-16T19:05:56.837Z,3.01
2019-01-16T19:08:11.228Z,3.02
2019-01-16T19:10:20.625Z,3.08
2019-01-16T19:12:29.247Z,2.77
2019-01-16T19:14:43.204Z,3.06
2019-01-16T19:16:50.575Z,3.26
2019-01-16T19:18:57.969Z,3.09
2019-01-16T19:21:12.328Z,3.12
2019-01-16T19:23:19.695Z,3.15
2019-01-16T19:25:27.101Z,3.05
2019-01-16T19:27:41.462Z,3.50
2019-01-16T19:29:50.052Z,3.54
2019-01-16T19:31:58.670Z,3.53
2019-01-16T19:34:12.639Z,3.74
2019-01-16T19:36:21.228Z,3.52
2019-01-16T19:38:28.614Z,3.60
2019-01-16T19:40:42.160Z,3.83
2019-01-16T19:42:49.533Z,3.50
2019-01-16T19:44:56.915Z,3.71
2019-01-16T19:47:12.518Z,3.60
2019-01-16T19:49:21.938Z,3.78
2019-01-16T19:51:29.320Z,3.45
2019-01-16T19:53:43.279Z,3.59
2019-01-16T19:55:50.646Z,3.58
2019-01-16T19:57:58.034Z,3.89
2019-01-16T20:00:12.408Z,3.98
2019-01-16T20:02:20.999Z,3.50
2019-01-16T20:04:34.341Z,3.44
2019-01-16T20:06:48.520Z,3.53
2019-01-16T20:08:57.913Z,3.97
2019-01-16T20:11:05.294Z,3.99
2019-01-16T20:13:20.486Z,3.60
2019-01-16T20:15:27.850Z,3.45
2019-01-16T20:17:35.235Z,3.85
2019-01-16T20:19:50.446Z,3.85
2019-01-16T20:22:01.072Z,3.80
2019-01-16T20:26:27.333Z,3.44
2019-01-16T20:28:34.703Z,3.63
2019-01-16T20:30:42.088Z,4.10
2019-01-16T20:32:56.461Z,3.71
2019-01-16T20:35:09.638Z,3.49
2019-01-16T20:37:11.214Z,3.72
2019-01-16T20:39:26.409Z,3.65
2019-01-16T20:41:33.769Z,3.71
2019-01-16T20:43:41.156Z,3.91
2019-01-16T20:45:55.527Z,3.93
2019-01-16T20:48:02.896Z,3.74
2019-01-16T20:50:12.328Z,4.05
2019-01-16T20:52:27.521Z,3.93
2019-01-16T20:54:34.887Z,4.10
2019-01-16T20:56:43.561Z,3.78
2019-01-16T20:59:01.153Z,3.80
2019-01-16T21:01:10.568Z,3.86
2019-01-16T21:03:17.987Z,3.92
2019-01-16T21:05:32.328Z,3.68
2019-01-16T21:07:39.692Z,3.94
2019-01-16T21:09:48.314Z,3.84
2019-01-16T21:12:03.500Z,4.63
2019-01-16T21:16:22.353Z,4.36
2019-01-16T21:18:37.540Z,4.54
2019-01-16T21:20:52.278Z,4.06
2019-01-16T21:22:59.692Z,4.28
2019-01-16T21:25:16.388Z,4.67
2019-01-16T21:27:28.794Z,4.41
2019-01-16T21:29:44.357Z,4.44
2019-01-16T21:31:58.328Z,4.60
2019-01-16T21:34:07.733Z,4.60
2019-01-16T21:36:15.122Z,4.41
2019-01-16T21:38:31.537Z,4.43
2019-01-16T21:40:38.900Z,4.18
2019-01-16T21:42:46.290Z,4.34
2019-01-16T21:45:01.479Z,4.23
2019-01-16T21:47:10.075Z,4.41
2019-01-16T21:49:18.691Z,4.09
2019-01-16T21:51:32.244Z,4.28
2019-01-16T21:53:40.842Z,4.16
2019-01-16T21:55:55.198Z,4.16
2019-01-16T21:58:10.388Z,4.13
2019-01-16T22:00:23.887Z,4.23
2019-01-16T22:02:31.274Z,4.28
2019-01-16T22:04:46.470Z,4.27
2019-01-16T22:06:55.881Z,4.16
2019-01-16T22:09:04.498Z,4.45
2019-01-16T22:13:00.971Z,4.19
2019-01-16T22:15:08.636Z,4.39
2019-01-16T22:19:03.113Z,4.31
2019-01-16T22:21:10.723Z,4.15
2019-01-16T22:23:28.376Z,4.23
2019-01-16T22:25:35.772Z,4.21
2019-01-16T22:27:44.358Z,4.61
2019-01-16T22:29:59.550Z,4.26
2019-01-16T22:32:06.913Z,4.04
2019-01-16T22:34:23.315Z,3.99
2019-01-16T22:36:37.275Z,4.34
2019-01-16T22:38:46.689Z,4.26
2019-01-16T22:41:01.038Z,4.05
2019-01-16T22:44:57.544Z,4.26
2019-01-16T22:47:09.274Z,4.22
2019-01-16T22:49:18.710Z,4.21
2019-01-16T22:51:32.670Z,4.16
2019-01-16T22:53:43.425Z,4.09
2019-01-16T22:55:54.386Z,4.03
2019-01-16T22:58:11.472Z,4.14
2019-01-16T23:00:18.179Z,4.21
2019-01-16T23:02:26.789Z,4.15
2019-01-16T23:04:41.579Z,4.12
2019-01-16T23:06:50.165Z,4.16
2019-01-16T23:09:03.698Z,4.10
2019-01-16T23:11:17.658Z,4.24
2019-01-16T23:13:28.302Z,4.28
2019-01-16T23:15:35.702Z,4.08
2019-01-16T23:17:49.658Z,3.99
2019-01-16T23:20:00.301Z,4.07
2019-01-16T23:22:14.667Z,3.88
2019-01-16T23:24:23.260Z,3.80
2019-01-16T23:26:30.654Z,3.78
2019-01-16T23:28:44.608Z,3.66
2019-01-16T23:30:58.960Z,3.79
2019-01-16T23:35:16.987Z,3.85
2019-01-16T23:37:32.186Z,3.98
2019-01-16T23:39:40.780Z,3.76
2019-01-16T23:41:49.398Z,3.70
2019-01-16T23:44:03.776Z,3.87
2019-01-16T23:46:19.774Z,3.78
2019-01-16T23:48:28.349Z,3.84
2019-01-16T23:52:52.978Z,3.88
2019-01-16T23:55:00.344Z,3.74
2019-01-16T23:57:07.729Z,3.58
2019-01-16T23:59:21.697Z,3.79
